Time;durP1;ratioP1;P1;durP2;ratioP2;P2;SDS_P1;SDS_P2;PMS_P1;PMS_P2;Temp;Humidity;BMP_temperature;BMP_pressure;BME280_temperature;BME280_humidity;BME280_pressure;Samples;Min_cycle;Max_cycle;Signal;HPM_P1;HPM_P2
2021/10/29 00:00:05;;;;;;;11.55;5.57;;;;;;;10.43;100.00;100895.56;5138518;28;20240;-74
2021/10/29 00:02:36;;;;;;;11.32;5.07;;;;;;;10.40;100.00;100887.84;5138677;28;20055;-74
2021/10/29 00:05:07;;;;;;;13.95;6.05;;;;;;;10.41;100.00;100887.69;5138004;28;20022;-74
2021/10/29 00:07:38;;;;;;;13.32;5.15;;;;;;;10.41;100.00;100886.84;5136841;28;20495;-73
2021/10/29 00:10:08;;;;;;;9.82;5.22;;;;;;;10.37;100.00;100889.00;5138527;28;20031;-73
2021/10/29 00:12:39;;;;;;;9.93;5.30;;;;;;;10.26;100.00;100894.69;5137810;28;20027;-73
2021/10/29 00:15:10;;;;;;;9.63;5.53;;;;;;;10.27;100.00;100886.47;5139095;28;20579;-73
2021/10/29 00:17:40;;;;;;;15.57;6.20;;;;;;;10.26;100.00;100881.28;5138035;28;20456;-74
2021/10/29 00:20:11;;;;;;;12.90;5.45;;;;;;;10.22;100.00;100887.94;5138340;28;20033;-73
2021/10/29 00:22:42;;;;;;;11.18;5.95;;;;;;;10.18;100.00;100884.72;5138049;28;20042;-72
2021/10/29 00:25:13;;;;;;;11.90;6.25;;;;;;;10.16;100.00;100881.38;5138784;28;20027;-74
2021/10/29 00:27:44;;;;;;;11.55;5.53;;;;;;;10.10;100.00;100880.19;5138306;28;20408;-73
2021/10/29 00:30:14;;;;;;;11.85;6.03;;;;;;;10.12;100.00;100883.53;5138424;28;20106;-73
2021/10/29 00:32:45;;;;;;;8.32;4.85;;;;;;;10.01;100.00;100881.16;5138537;28;20031;-73
2021/10/29 00:35:16;;;;;;;12.50;5.20;;;;;;;9.95;100.00;100894.38;5139009;28;20496;-73
2021/10/29 00:37:46;;;;;;;9.20;5.53;;;;;;;9.94;100.00;100887.31;5139466;28;20113;-73
2021/10/29 00:40:17;;;;;;;10.52;6.25;;;;;;;9.92;100.00;100889.31;5141058;28;20559;-73
2021/10/29 00:42:47;;;;;;;12.40;5.93;;;;;;;9.88;100.00;100887.94;5139993;28;20030;-74
2021/10/29 00:45:18;;;;;;;11.27;5.68;;;;;;;9.85;100.00;100899.84;5139332;28;20109;-74
2021/10/29 00:47:51;;;;;;;12.15;5.53;;;;;;;9.82;100.00;100894.81;5141357;28;20489;-73
2021/10/29 00:50:22;;;;;;;13.45;6.03;;;;;;;9.78;100.00;100890.75;5138116;28;20035;-74
2021/10/29 00:52:53;;;;;;;11.23;5.57;;;;;;;9.77;100.00;100889.91;5137637;28;20193;-74
2021/10/29 00:55:24;;;;;;;11.77;5.82;;;;;;;9.74;100.00;100884.91;5137470;28;20023;-75
2021/10/29 00:57:55;;;;;;;16.08;5.55;;;;;;;9.69;100.00;100879.19;5137739;28;20081;-74
2021/10/29 01:00:26;;;;;;;11.52;5.38;;;;;;;9.67;100.00;100883.00;5137673;28;20488;-73
2021/10/29 01:02:57;;;;;;;13.25;6.25;;;;;;;9.66;100.00;100884.84;5137979;28;20019;-74
2021/10/29 01:05:29;;;;;;;13.20;6.47;;;;;;;9.64;100.00;100869.91;5138135;28;20050;-74
2021/10/29 01:08:00;;;;;;;10.65;5.63;;;;;;;9.62;100.00;100875.44;5137290;28;20511;-74
2021/10/29 01:10:30;;;;;;;16.45;6.13;;;;;;;9.58;100.00;100874.91;5138222;28;20392;-74
2021/10/29 01:13:01;;;;;;;10.10;5.55;;;;;;;9.64;100.00;100875.28;5138188;28;20027;-75
2021/10/29 01:15:32;;;;;;;10.32;5.28;;;;;;;9.65;100.00;100866.25;5137685;28;20034;-74
2021/10/29 01:18:03;;;;;;;16.02;5.63;;;;;;;9.60;100.00;100864.06;5137437;28;20051;-74
2021/10/29 01:20:33;;;;;;;11.73;5.63;;;;;;;9.67;100.00;100862.41;5137029;28;20165;-73
2021/10/29 01:23:04;;;;;;;9.85;5.53;;;;;;;9.75;100.00;100840.19;5137218;28;20113;-74
2021/10/29 01:25:35;;;;;;;11.32;5.32;;;;;;;9.75;100.00;100856.25;5137570;28;20366;-75
2021/10/29 01:28:10;;;;;;;12.57;6.38;;;;;;;9.67;100.00;100851.69;5124154;28;20039;-73
2021/10/29 01:30:41;;;;;;;10.30;5.40;;;;;;;9.67;100.00;100845.50;5137026;28;20107;-73
2021/10/29 01:33:11;;;;;;;9.30;5.32;;;;;;;9.66;100.00;100849.19;5137533;28;20034;-74
2021/10/29 01:35:42;;;;;;;12.60;5.70;;;;;;;9.71;100.00;100842.34;5137358;28;20510;-74
2021/10/29 01:38:14;;;;;;;11.48;5.18;;;;;;;9.75;100.00;100845.56;5137399;28;20073;-73
2021/10/29 01:40:44;;;;;;;11.07;5.78;;;;;;;9.79;100.00;100846.91;5136681;28;20505;-74
2021/10/29 01:43:28;;;;;;;15.23;6.18;;;;;;;9.79;100.00;100847.75;5136678;28;20034;-73
2021/10/29 01:45:58;;;;;;;11.82;5.63;;;;;;;9.79;100.00;100842.38;5137449;28;20106;-74
2021/10/29 01:48:33;;;;;;;12.82;5.70;;;;;;;9.79;100.00;100842.38;5136990;28;20026;-73
2021/10/29 01:51:04;;;;;;;10.73;5.68;;;;;;;9.77;100.00;100840.84;5137462;28;20097;-73
2021/10/29 01:53:35;;;;;;;11.93;5.43;;;;;;;9.77;100.00;100835.50;5136535;28;20039;-75
2021/10/29 01:56:06;;;;;;;14.43;5.43;;;;;;;9.80;100.00;100836.03;5137406;28;20211;-73
2021/10/29 01:58:37;;;;;;;12.18;5.78;;;;;;;9.86;100.00;100834.53;5137672;28;20205;-74
2021/10/29 02:01:09;;;;;;;12.57;6.75;;;;;;;9.88;100.00;100835.19;5137314;28;20058;-73
2021/10/29 02:03:40;;;;;;;9.85;5.28;;;;;;;10.03;100.00;100830.88;5136939;28;20031;-75
2021/10/29 02:06:10;;;;;;;10.55;6.00;;;;;;;10.25;100.00;100817.94;5136807;28;20027;-73
2021/10/29 02:08:41;;;;;;;12.68;5.13;;;;;;;10.25;100.00;100815.25;5136898;28;20034;-74
2021/10/29 02:11:12;;;;;;;10.23;5.45;;;;;;;10.34;100.00;100811.56;5136772;28;20444;-75
2021/10/29 02:13:43;;;;;;;9.98;5.35;;;;;;;10.32;100.00;100810.88;5136718;28;20057;-74
2021/10/29 02:16:13;;;;;;;9.40;4.65;;;;;;;10.39;100.00;100809.22;5137009;28;20019;-76
2021/10/29 02:18:44;;;;;;;9.35;5.38;;;;;;;10.33;100.00;100805.34;5136527;28;20400;-74
2021/10/29 02:21:14;;;;;;;8.77;4.72;;;;;;;10.33;100.00;100802.66;5137028;28;20031;-73
2021/10/29 02:23:45;;;;;;;10.75;5.10;;;;;;;10.30;100.00;100802.19;5136780;28;20489;-76
2021/10/29 02:26:16;;;;;;;11.73;4.65;;;;;;;10.38;100.00;100803.00;5136933;28;20027;-75
2021/10/29 02:28:46;;;;;;;14.90;5.07;;;;;;;10.38;100.00;100794.13;5139499;28;20279;-74
2021/10/29 02:31:17;;;;;;;8.38;4.20;;;;;;;10.43;100.00;100793.63;5140967;28;20023;-74
2021/10/29 02:33:47;;;;;;;10.00;4.03;;;;;;;10.38;100.00;100794.97;5141317;28;20118;-74
2021/10/29 02:36:18;;;;;;;15.43;5.05;;;;;;;10.39;100.00;100801.16;5141032;28;20084;-73
2021/10/29 02:38:49;;;;;;;11.35;5.10;;;;;;;10.41;100.00;100798.34;5140991;28;20346;-73
2021/10/29 02:41:20;;;;;;;8.05;4.70;;;;;;;10.37;100.00;100795.97;5141498;28;20025;-75
2021/10/29 02:43:50;;;;;;;6.88;4.18;;;;;;;10.34;100.00;100795.47;5140714;28;20127;-73
2021/10/29 02:46:21;;;;;;;8.77;5.10;;;;;;;10.32;100.00;100795.63;5141202;28;20026;-73
2021/10/29 02:48:53;;;;;;;15.85;4.88;;;;;;;10.31;100.00;100795.81;5139946;28;20030;-74
2021/10/29 02:51:25;;;;;;;12.57;5.22;;;;;;;10.27;100.00;100783.75;5140680;28;20034;-73
2021/10/29 02:53:57;;;;;;;9.73;4.55;;;;;;;10.25;100.00;100793.81;5139861;28;20030;-73
2021/10/29 02:56:28;;;;;;;9.57;4.70;;;;;;;10.23;100.00;100788.56;5140616;28;20516;-73
2021/10/29 02:58:58;;;;;;;10.68;5.07;;;;;;;10.15;100.00;100793.09;5140201;28;20239;-75
2021/10/29 03:01:29;;;;;;;9.55;4.63;;;;;;;10.12;100.00;100787.03;5140559;28;20039;-73
2021/10/29 03:03:59;;;;;;;11.00;4.80;;;;;;;10.12;100.00;100794.22;5141341;28;20400;-72
2021/10/29 03:06:30;;;;;;;9.88;4.50;;;;;;;10.07;100.00;100789.38;5141165;28;20031;-74
2021/10/29 03:09:00;;;;;;;12.15;4.90;;;;;;;10.02;100.00;100789.03;5140909;28;20083;-73
2021/10/29 03:11:31;;;;;;;12.52;4.57;;;;;;;9.99;100.00;100783.13;5140413;28;20031;-74
2021/10/29 03:14:01;;;;;;;12.57;5.30;;;;;;;9.92;100.00;100785.66;5140261;28;20035;-72
2021/10/29 03:16:32;;;;;;;10.57;5.05;;;;;;;9.83;100.00;100770.53;5140325;28;20022;-73
2021/10/29 03:19:02;;;;;;;13.45;4.80;;;;;;;9.80;100.00;100776.25;5140617;28;20035;-73
2021/10/29 03:21:33;;;;;;;11.45;5.35;;;;;;;9.80;100.00;100777.06;5140919;28;20530;-74
2021/10/29 03:24:04;;;;;;;13.95;4.68;;;;;;;9.74;100.00;100772.38;5140777;28;20492;-73
2021/10/29 03:26:34;;;;;;;8.77;5.10;;;;;;;9.75;100.00;100767.84;5139590;28;20472;-73
2021/10/29 03:29:05;;;;;;;11.18;5.38;;;;;;;9.75;100.00;100763.34;5140424;28;20026;-74
2021/10/29 03:31:35;;;;;;;10.23;4.95;;;;;;;9.71;100.00;100767.34;5140785;28;20038;-74
2021/10/29 03:34:06;;;;;;;9.15;4.22;;;;;;;9.68;100.00;100759.59;5139966;28;20199;-73
2021/10/29 03:36:37;;;;;;;11.38;4.78;;;;;;;9.67;100.00;100760.63;5140988;28;20688;-72
2021/10/29 03:39:17;;;;;;;11.43;5.30;;;;;;;9.75;100.00;100766.00;5139266;28;20101;-73
2021/10/29 03:41:55;;;;;;;12.25;5.03;;;;;;;9.71;100.00;100763.81;5140419;28;20027;-73
2021/10/29 03:44:54;;;;;;;10.52;4.80;;;;;;;9.69;100.00;100758.63;5139716;28;20111;-73
2021/10/29 03:47:29;;;;;;;10.93;5.18;;;;;;;9.75;100.00;100762.50;5139664;28;20054;-74
2021/10/29 03:50:19;;;;;;;11.30;5.33;;;;;;;9.66;100.00;100750.06;5139318;28;20033;-74
2021/10/29 03:55:42;;;;;;;8.82;4.90;;;;;;;9.70;100.00;100741.56;5139397;28;20042;-74
2021/10/29 03:58:13;;;;;;;10.10;4.60;;;;;;;9.70;100.00;100741.56;5140055;28;20034;-73
2021/10/29 04:00:43;;;;;;;10.20;4.97;;;;;;;9.66;100.00;100747.41;5138600;28;20389;-72
2021/10/29 04:03:14;;;;;;;9.90;4.53;;;;;;;9.62;100.00;100741.50;5139570;28;20060;-75
2021/10/29 04:05:45;;;;;;;14.15;5.55;;;;;;;9.71;100.00;100739.72;5139296;28;20046;-73
2021/10/29 04:08:15;;;;;;;7.30;4.65;;;;;;;9.66;100.00;100739.34;5139447;28;20464;-72
2021/10/29 04:10:47;;;;;;;9.90;5.55;;;;;;;9.64;100.00;100742.22;5139125;28;20477;-73
2021/10/29 04:13:18;;;;;;;12.43;5.30;;;;;;;9.62;100.00;100746.88;5139275;28;20033;-73
2021/10/29 04:15:48;;;;;;;7.63;4.53;;;;;;;9.68;100.00;100743.53;5138801;28;20026;-75
2021/10/29 04:18:19;;;;;;;13.73;4.78;;;;;;;9.68;100.00;100746.22;5139412;28;20022;-74
2021/10/29 04:20:49;;;;;;;9.15;4.60;;;;;;;9.69;100.00;100739.88;5138744;28;20033;-74
2021/10/29 04:23:20;;;;;;;9.52;5.18;;;;;;;9.72;100.00;100736.84;5139012;28;20523;-74
2021/10/29 04:25:51;;;;;;;10.05;5.18;;;;;;;9.77;100.00;100745.25;5138822;28;20556;-75
2021/10/29 04:28:22;;;;;;;10.95;4.72;;;;;;;9.79;100.00;100729.03;5138863;28;20031;-73
2021/10/29 04:30:53;;;;;;;10.80;4.88;;;;;;;9.78;100.00;100730.84;5138559;28;20405;-73
2021/10/29 04:33:24;;;;;;;12.27;5.20;;;;;;;9.90;100.00;100722.50;5139247;28;20572;-73
2021/10/29 04:35:54;;;;;;;10.63;4.07;;;;;;;9.99;100.00;100721.50;5138438;28;20117;-76
2021/10/29 04:38:25;;;;;;;12.07;4.65;;;;;;;10.03;100.00;100717.50;5138444;28;20030;-73
2021/10/29 04:40:56;;;;;;;9.90;4.60;;;;;;;9.99;100.00;100711.66;5138369;28;20500;-73
2021/10/29 04:43:26;;;;;;;7.68;4.63;;;;;;;10.00;100.00;100716.00;5138591;28;20022;-74
2021/10/29 04:45:57;;;;;;;9.65;4.53;;;;;;;10.01;100.00;100711.47;5138937;28;20014;-74
2021/10/29 04:48:27;;;;;;;9.50;4.80;;;;;;;10.08;100.00;100721.34;5138885;28;20516;-73
2021/10/29 04:50:58;;;;;;;9.60;5.13;;;;;;;10.13;100.00;100713.63;5138576;28;20117;-73
2021/10/29 04:53:29;;;;;;;14.35;6.32;;;;;;;10.17;100.00;100713.31;5139377;28;20536;-74
2021/10/29 04:55:59;;;;;;;9.80;4.95;;;;;;;10.16;100.00;100715.16;5138871;28;20109;-75
2021/10/29 04:58:30;;;;;;;12.20;5.28;;;;;;;10.16;100.00;100709.81;5138968;28;20023;-75
2021/10/29 05:01:01;;;;;;;12.70;5.00;;;;;;;10.10;100.00;100708.63;5138424;28;20388;-74
2021/10/29 05:03:32;;;;;;;7.55;4.50;;;;;;;10.10;100.00;100711.31;5137974;28;20026;-75
2021/10/29 05:06:02;;;;;;;10.18;4.90;;;;;;;10.16;100.00;100706.28;5138267;28;20042;-74
2021/10/29 05:08:35;;;;;;;10.15;5.18;;;;;;;10.13;100.00;100700.25;5138419;28;20034;-74
2021/10/29 05:11:06;;;;;;;11.23;5.07;;;;;;;10.18;100.00;100702.41;5137870;28;20030;-74
2021/10/29 05:13:37;;;;;;;7.90;4.50;;;;;;;10.19;100.00;100689.84;5138503;28;20033;-74
2021/10/29 05:16:08;;;;;;;11.82;4.80;;;;;;;10.24;100.00;100688.41;5137725;28;20102;-74
2021/10/29 05:18:38;;;;;;;10.05;4.22;;;;;;;10.17;100.00;100687.34;5138354;28;20041;-75
2021/10/29 05:21:09;;;;;;;10.52;5.05;;;;;;;10.30;100.00;100686.88;5137739;28;20045;-73
2021/10/29 05:23:40;;;;;;;9.68;4.95;;;;;;;10.30;100.00;100681.53;5138472;28;20023;-74
2021/10/29 05:26:11;;;;;;;10.27;4.50;;;;;;;10.25;100.00;100673.16;5138217;28;20393;-73
2021/10/29 05:28:41;;;;;;;12.23;4.75;;;;;;;10.28;100.00;100676.31;5138195;28;20041;-73
2021/10/29 05:31:12;;;;;;;11.27;4.75;;;;;;;10.25;100.00;100668.63;5137777;28;20540;-75
2021/10/29 05:33:42;;;;;;;13.90;5.13;;;;;;;10.26;100.00;100677.50;5138819;28;20023;-74
2021/10/29 05:36:13;;;;;;;9.82;4.65;;;;;;;10.19;100.00;100671.09;5136411;28;20481;-74
2021/10/29 05:38:43;;;;;;;12.73;4.70;;;;;;;10.09;100.00;100669.44;5137225;28;20022;-74
2021/10/29 05:41:14;;;;;;;8.73;4.25;;;;;;;10.23;100.00;100678.63;5137595;28;20030;-73
2021/10/29 05:43:44;;;;;;;13.25;5.18;;;;;;;10.23;100.00;100667.06;5138027;28;20066;-74
2021/10/29 05:46:15;;;;;;;10.00;4.90;;;;;;;10.25;100.00;100670.47;5138078;28;20027;-75
2021/10/29 05:48:46;;;;;;;15.05;4.88;;;;;;;10.28;100.00;100672.78;5137581;28;20059;-74
2021/10/29 05:51:19;;;;;;;8.52;4.63;;;;;;;10.26;100.00;100662.25;5136903;28;20151;-76
2021/10/29 05:56:21;;;;;;;12.65;4.38;;;;;;;10.33;100.00;100654.34;5137367;28;20033;-75
2021/10/29 05:58:52;;;;;;;10.55;4.53;;;;;;;10.24;100.00;100653.56;5137341;28;20027;-76
2021/10/29 06:01:22;;;;;;;8.52;4.90;;;;;;;10.20;100.00;100649.50;5137393;28;20487;-76
2021/10/29 06:03:54;;;;;;;9.57;4.65;;;;;;;10.28;100.00;100662.06;5137309;28;20040;-76
2021/10/29 06:06:25;;;;;;;12.70;4.68;;;;;;;10.30;100.00;100658.22;5176682;23;20085;-74
2021/10/29 06:08:56;;;;;;;8.10;4.75;;;;;;;10.30;100.00;100666.28;5196121;28;20457;-73
2021/10/29 06:11:28;;;;;;;11.90;4.85;;;;;;;10.23;100.00;100650.97;5197050;28;20471;-74
2021/10/29 06:13:58;;;;;;;8.85;4.65;;;;;;;10.23;100.00;100642.94;5212462;28;20084;-74
2021/10/29 06:16:30;;;;;;;12.52;5.72;;;;;;;10.21;100.00;100650.31;5196550;28;20474;-74
2021/10/29 06:19:01;;;;;;;9.38;4.32;;;;;;;10.22;100.00;100652.00;5197373;28;20058;-74
2021/10/29 06:21:36;;;;;;;10.77;5.05;;;;;;;10.24;100.00;100647.31;5197435;28;20538;-75
2021/10/29 06:24:12;;;;;;;9.13;4.50;;;;;;;10.22;100.00;100646.63;5196256;28;20032;-76
2021/10/29 06:26:49;;;;;;;10.35;5.20;;;;;;;10.22;100.00;100641.28;5196884;28;20505;-75
2021/10/29 06:29:19;;;;;;;11.63;4.53;;;;;;;10.19;100.00;100647.81;5196693;28;20067;-76
2021/10/29 06:31:50;;;;;;;9.68;4.88;;;;;;;10.19;100.00;100641.59;5212558;28;20667;-76
2021/10/29 06:34:22;;;;;;;13.13;4.97;;;;;;;10.21;100.00;100653.00;5196861;28;20041;-75
2021/10/29 06:36:52;;;;;;;11.65;4.85;;;;;;;10.22;100.00;100647.47;5196994;28;20057;-76
2021/10/29 06:39:23;;;;;;;10.77;5.05;;;;;;;10.26;100.00;100650.69;5196637;28;20064;-76
2021/10/29 06:41:54;;;;;;;8.00;4.97;;;;;;;10.19;100.00;100645.16;5212590;28;20485;-76
2021/10/29 06:47:32;;;;;;;9.35;5.03;;;;;;;10.19;100.00;100644.28;5197622;28;20029;-76
2021/10/29 07:00:39;;;;;;;14.63;5.47;;;;;;;10.09;100.00;100641.75;5197056;28;20033;-73
2021/10/29 07:42:18;;;;;;;7.88;4.20;;;;;;;12.23;100.00;100636.13;5214024;28;20032;-77
2021/10/29 07:44:49;;;;;;;10.15;4.13;;;;;;;12.47;100.00;100635.06;5200190;28;20117;-76
2021/10/29 07:47:20;;;;;;;8.70;4.80;;;;;;;12.87;100.00;100635.66;5199134;28;20185;-76
2021/10/29 07:49:51;;;;;;;10.77;4.43;;;;;;;13.07;100.00;100635.91;5182444;28;20071;-76
2021/10/29 07:52:21;;;;;;;8.77;4.50;;;;;;;13.36;100.00;100635.06;5215504;28;20029;-76
2021/10/29 07:54:52;;;;;;;8.30;4.28;;;;;;;13.73;100.00;100632.16;5200107;28;20104;-75
2021/10/29 07:57:24;;;;;;;8.68;4.43;;;;;;;13.70;100.00;100631.69;5200095;28;20567;-76
2021/10/29 07:59:55;;;;;;;8.60;4.65;;;;;;;13.74;100.00;100623.03;5199752;28;20060;-76
2021/10/29 08:02:26;;;;;;;8.05;4.32;;;;;;;13.85;100.00;100628.94;5198527;28;20485;-77
2021/10/29 08:04:57;;;;;;;7.68;4.22;;;;;;;14.00;100.00;100614.34;5200545;28;20033;-76
2021/10/29 08:07:28;;;;;;;7.53;4.15;;;;;;;14.09;100.00;100617.75;5198990;28;20710;-76
2021/10/29 08:10:01;;;;;;;10.82;4.38;;;;;;;14.59;100.00;100620.44;5199756;28;20100;-76
2021/10/29 08:12:32;;;;;;;5.60;3.80;;;;;;;14.68;100.00;100606.56;5199832;28;20448;-76
2021/10/29 08:15:04;;;;;;;9.80;4.13;;;;;;;14.57;100.00;100601.75;5199766;28;20037;-76
2021/10/29 08:17:36;;;;;;;9.15;4.13;;;;;;;14.44;100.00;100605.13;5215756;28;20400;-76
2021/10/29 08:20:09;;;;;;;6.53;3.58;;;;;;;14.57;100.00;100601.75;5200245;28;20033;-76
2021/10/29 08:22:40;;;;;;;7.43;4.35;;;;;;;14.42;100.00;100596.41;5200360;28;20025;-77
2021/10/29 08:25:12;;;;;;;4.95;3.20;;;;;;;14.67;100.00;100602.22;5199500;28;20044;-76
2021/10/29 08:27:43;;;;;;;8.93;4.07;;;;;;;14.72;100.00;100597.06;5199544;28;20025;-75
2021/10/29 08:30:14;;;;;;;8.05;4.45;;;;;;;14.90;100.00;100588.41;5199743;28;20040;-75
2021/10/29 08:32:46;;;;;;;8.10;4.10;;;;;;;14.90;100.00;100577.59;5199653;28;20112;-76
2021/10/29 08:35:18;;;;;;;7.28;4.20;;;;;;;14.98;100.00;100593.63;5200122;28;20060;-76
2021/10/29 08:37:50;;;;;;;7.00;3.80;;;;;;;15.22;100.00;100577.94;5199250;28;20116;-76
2021/10/29 08:40:22;;;;;;;10.13;3.97;;;;;;;15.43;100.00;100577.78;5199049;28;20127;-75
2021/10/29 08:42:52;;;;;;;9.90;3.70;;;;;;;15.68;100.00;100582.66;5199330;28;20079;-76
2021/10/29 08:45:25;;;;;;;8.32;3.70;;;;;;;16.01;100.00;100571.81;5197745;28;20021;-76
2021/10/29 08:47:57;;;;;;;5.78;3.47;;;;;;;16.20;100.00;100576.41;5199698;28;20064;-76
2021/10/29 08:50:27;;;;;;;8.43;4.30;;;;;;;16.08;100.00;100586.22;5199619;28;20025;-76
2021/10/29 08:52:58;;;;;;;9.07;4.05;;;;;;;16.00;100.00;100579.13;5200450;28;20044;-76
2021/10/29 08:55:31;;;;;;;6.30;3.67;;;;;;;16.28;100.00;100575.38;5199635;28;20025;-76
2021/10/29 08:58:05;;;;;;;9.40;3.80;;;;;;;16.18;100.00;100581.22;5199805;28;20409;-76
2021/10/29 09:00:41;;;;;;;10.75;4.20;;;;;;;16.71;100.00;100570.28;5221694;28;20425;-76
2021/10/29 09:03:24;;;;;;;10.93;4.35;;;;;;;16.57;100.00;100568.66;5198587;28;20189;-76
2021/10/29 09:06:16;;;;;;;8.38;3.72;;;;;;;16.90;100.00;100573.97;5199614;28;20036;-75
2021/10/29 09:09:03;;;;;;;6.85;3.40;;;;;;;17.38;100.00;100567.31;5199419;28;20025;-75
2021/10/29 09:11:55;;;;;;;8.13;3.63;;;;;;;16.64;100.00;100558.63;5215116;28;20021;-76
2021/10/29 09:32:00;;;;;;;6.38;3.13;;;;;;;14.56;100.00;100556.03;5197968;28;20025;-77
2021/10/29 09:34:30;;;;;;;5.55;3.38;;;;;;;14.60;100.00;100562.69;5186286;28;20061;-76
2021/10/29 09:37:04;;;;;;;4.97;3.00;;;;;;;14.85;100.00;100561.16;5197766;28;20064;-76
2021/10/29 09:39:35;;;;;;;7.53;3.35;;;;;;;15.71;100.00;100547.91;5197616;28;20461;-75
2021/10/29 09:42:08;;;;;;;7.43;3.20;;;;;;;16.22;100.00;100560.81;5198050;28;20052;-76
2021/10/29 09:44:45;;;;;;;4.80;3.03;;;;;;;16.79;100.00;100564.66;5197539;28;20025;-75
2021/10/29 09:47:20;;;;;;;5.20;3.08;;;;;;;16.97;100.00;100560.44;5197981;28;20025;-75
2021/10/29 09:57:37;;;;;;;6.38;3.05;;;;;;;17.09;100.00;100537.00;5197134;28;20076;-76
2021/10/29 10:00:11;;;;;;;5.97;3.00;;;;;;;16.88;100.00;100540.03;5196520;28;20032;-75
2021/10/29 10:02:43;;;;;;;9.43;2.80;;;;;;;16.57;100.00;100538.88;5198394;28;20123;-76
2021/10/29 10:05:15;;;;;;;8.25;2.65;;;;;;;16.48;100.00;100534.72;5196906;28;20510;-76
2021/10/29 10:07:46;;;;;;;8.98;3.20;;;;;;;16.51;100.00;100532.41;5198043;28;20030;-76
2021/10/29 10:10:18;;;;;;;6.80;3.22;;;;;;;16.40;100.00;100527.66;5197787;28;20029;-77
2021/10/29 10:12:50;;;;;;;10.25;3.35;;;;;;;16.63;100.00;100538.00;5197179;28;20221;-76
2021/10/29 10:15:20;;;;;;;5.93;2.88;;;;;;;16.54;100.00;100509.50;5212486;28;20029;-76
2021/10/29 10:17:52;;;;;;;5.10;2.75;;;;;;;16.63;100.00;100504.69;5212954;28;20490;-75
2021/10/29 10:20:24;;;;;;;10.55;3.20;;;;;;;16.72;100.00;100509.69;5197482;28;20033;-75
2021/10/29 10:22:56;;;;;;;5.43;2.83;;;;;;;16.80;100.00;100497.75;5197853;28;20134;-76
2021/10/29 10:40:21;;;;;;;8.73;3.55;;;;;;;17.11;100.00;100512.38;5197024;28;20025;-76
2021/10/29 10:47:08;;;;;;;6.07;2.63;;;;;;;17.33;100.00;100503.72;5191815;28;20105;-76
2021/10/29 10:49:49;;;;;;;6.60;3.13;;;;;;;17.45;100.00;100498.41;5191064;28;20367;-76
2021/10/29 10:52:26;;;;;;;8.98;3.05;;;;;;;17.43;100.00;100495.09;5187250;28;20446;-75
2021/10/29 10:55:10;;;;;;;9.52;3.50;;;;;;;17.60;100.00;100485.34;5199762;28;20029;-76
2021/10/29 10:58:01;;;;;;;4.82;2.85;;;;;;;17.56;100.00;100494.16;5201498;28;20022;-77
2021/10/29 11:00:55;;;;;;;8.32;2.83;;;;;;;17.43;100.00;100486.97;5223446;28;20032;-77
2021/10/29 11:03:49;;;;;;;6.90;2.75;;;;;;;17.52;100.00;100492.94;5202321;28;20031;-75
2021/10/29 11:07:01;;;;;;;7.03;2.90;;;;;;;17.58;100.00;100486.66;5200037;28;20034;-76
2021/10/29 11:10:04;;;;;;;11.77;3.22;;;;;;;17.56;100.00;100483.31;5201387;28;20030;-76
2021/10/29 11:12:40;;;;;;;6.82;2.72;;;;;;;17.76;100.00;100475.03;5201606;28;20072;-77
2021/10/29 11:15:16;;;;;;;9.55;3.00;;;;;;;17.88;100.00;100480.56;5203257;28;20043;-77
2021/10/29 11:17:56;;;;;;;15.55;2.78;;;;;;;17.77;100.00;100484.81;5204297;28;20085;-77
2021/10/29 11:20:47;;;;;;;7.75;2.55;;;;;;;17.91;100.00;100471.97;5203874;28;20033;-76
2021/10/29 11:23:28;;;;;;;7.70;3.20;;;;;;;17.80;100.00;100478.97;5203455;28;20032;-76
2021/10/29 11:26:04;;;;;;;15.02;2.88;;;;;;;17.71;100.00;100464.81;5202076;28;20021;-76
2021/10/29 11:28:39;;;;;;;5.20;2.92;;;;;;;17.70;100.00;100457.72;5201816;28;20029;-76
2021/10/29 11:31:14;;;;;;;7.47;3.00;;;;;;;17.67;100.00;100446.47;5201759;28;20037;-76
2021/10/29 11:33:47;;;;;;;;;;;;;;;17.77;100.00;100442.28;5202008;28;20029;-76
2021/10/29 11:36:21;;;;;;;5.43;2.70;;;;;;;17.86;100.00;100437.38;5199470;28;19913;-76
2021/10/29 11:38:54;;;;;;;9.63;2.90;;;;;;;17.82;100.00;100434.28;5200164;28;20018;-76
2021/10/29 11:41:31;;;;;;;7.18;2.92;;;;;;;17.92;100.00;100436.47;5200302;28;20861;-77
2021/10/29 11:44:05;;;;;;;5.82;2.72;;;;;;;17.84;100.00;100415.88;5201694;28;20030;-76
2021/10/29 11:46:37;;;;;;;7.03;2.65;;;;;;;17.77;100.00;100426.00;5202268;28;20026;-76
2021/10/29 11:49:10;;;;;;;10.38;2.78;;;;;;;17.80;100.00;100421.97;5188574;28;20052;-76
2021/10/29 11:51:43;;;;;;;6.70;3.03;;;;;;;18.02;100.00;100411.50;5201663;28;20060;-76
2021/10/29 11:54:20;;;;;;;6.97;2.83;;;;;;;17.98;100.00;100423.91;5202307;28;20025;-76
2021/10/29 11:57:09;;;;;;;14.02;2.70;;;;;;;18.00;100.00;100416.34;5201435;28;20037;-77
2021/10/29 11:59:55;;;;;;;8.18;3.50;;;;;;;18.03;100.00;100414.03;5199557;28;20038;-76
2021/10/29 12:05:52;;;;;;;8.82;3.42;;;;;;;18.21;100.00;100404.22;5201988;28;20053;-77
2021/10/29 12:08:25;;;;;;;4.85;2.78;;;;;;;18.37;100.00;100403.59;5201398;28;20029;-76
2021/10/29 12:11:04;;;;;;;9.93;2.97;;;;;;;18.21;100.00;100405.03;5202640;28;20056;-77
2021/10/29 12:13:36;;;;;;;6.93;2.90;;;;;;;18.31;100.00;100405.34;5218398;28;20030;-76
2021/10/29 12:16:21;;;;;;;7.82;3.00;;;;;;;18.07;100.00;100400.81;5216838;28;20037;-77
2021/10/29 12:18:58;;;;;;;10.77;3.95;;;;;;;17.78;100.00;100392.38;5200021;28;20133;-76
2021/10/29 12:21:34;;;;;;;6.70;3.10;;;;;;;17.72;100.00;100384.25;5200031;28;20060;-76
2021/10/29 12:24:08;;;;;;;9.35;2.95;;;;;;;17.86;100.00;100383.91;5200611;28;20018;-76
2021/10/29 12:26:39;;;;;;;4.37;2.63;;;;;;;17.95;100.00;100373.59;5199284;28;20030;-77
2021/10/29 12:29:15;;;;;;;11.75;3.33;;;;;;;18.04;100.00;100374.97;5215479;28;20276;-77
2021/10/29 12:36:40;;;;;;;7.40;3.20;;;;;;;18.38;100.00;100384.38;5213395;28;19909;-77
2021/10/29 12:58:48;;;;;;;6.95;3.15;;;;;;;17.91;100.00;100364.25;5200281;28;20029;-75
2021/10/29 13:03:11;;;;;;;8.68;3.88;;;;;;;17.62;100.00;100354.97;5198253;28;20025;-77
2021/10/29 13:05:53;;;;;;;7.97;3.22;;;;;;;17.50;100.00;100359.44;5215176;28;20045;-77
2021/10/29 13:08:26;;;;;;;7.22;3.33;;;;;;;17.39;100.00;100352.88;5200516;28;20021;-76
2021/10/29 13:10:58;;;;;;;7.05;3.30;;;;;;;17.47;100.00;100362.59;5199286;28;20029;-76
2021/10/29 13:13:36;;;;;;;7.78;3.53;;;;;;;17.43;100.00;100366.81;5215085;28;20025;-77
2021/10/29 13:16:10;;;;;;;7.85;3.00;;;;;;;17.32;100.00;100363.78;5216794;28;21181;-77
2021/10/29 13:18:53;;;;;;;9.43;3.63;;;;;;;17.37;100.00;100360.41;5201026;28;20270;-77
2021/10/29 13:24:18;;;;;;;7.53;2.90;;;;;;;17.25;100.00;100384.69;5199833;28;20032;-76
2021/10/29 13:34:21;;;;;;;11.77;3.15;;;;;;;17.14;100.00;100390.81;5199828;28;20025;-76
2021/10/29 13:52:08;;;;;;;7.45;2.83;;;;;;;17.02;100.00;100381.75;5199726;28;20056;-77
2021/10/29 13:54:48;;;;;;;5.50;3.20;;;;;;;17.06;100.00;100377.53;5183444;28;20018;-77
2021/10/29 13:57:49;;;;;;;7.05;3.00;;;;;;;17.04;100.00;100385.06;5199519;28;20025;-76
2021/10/29 14:28:21;;;;;;;8.55;2.90;;;;;;;16.55;100.00;100389.28;5189195;28;20033;-76
2021/10/29 14:30:56;;;;;;;16.40;3.35;;;;;;;16.53;100.00;100386.00;5201269;28;20060;-75
2021/10/29 14:33:32;;;;;;;12.85;3.35;;;;;;;16.47;100.00;100401.22;5201583;28;20036;-77
2021/10/29 14:36:08;;;;;;;7.65;3.03;;;;;;;16.45;100.00;100399.75;5216962;28;20513;-78
2021/10/29 14:38:48;;;;;;;5.13;2.72;;;;;;;16.39;100.00;100398.75;5201206;28;20482;-77
2021/10/29 14:41:32;;;;;;;10.35;2.97;;;;;;;16.40;100.00;100399.59;5202681;28;20024;-79
2021/10/29 14:44:11;;;;;;;7.25;2.83;;;;;;;16.36;100.00;100403.75;5222200;28;20161;-79
2021/10/29 14:46:51;;;;;;;7.88;2.75;;;;;;;16.27;100.00;100404.00;5200823;28;20025;-78
2021/10/29 14:49:32;;;;;;;4.78;2.85;;;;;;;16.27;100.00;100403.19;5217117;28;20041;-78